sensor_id;sensor_type;location;lat;lon;timestamp;temperature;humidity
25450;DHT22;13371;52.080;5.624;2023-06-10T00:00:13;23.50;69.20
25450;DHT22;13371;52.080;5.624;2023-06-10T00:02:41;23.40;69.30
25450;DHT22;13371;52.080;5.624;2023-06-10T00:05:07;23.40;69.40
25450;DHT22;13371;52.080;5.624;2023-06-10T00:07:34;23.30;69.30
25450;DHT22;13371;52.080;5.624;2023-06-10T00:10:04;23.30;69.30
25450;DHT22;13371;52.080;5.624;2023-06-10T00:12:31;23.40;68.80
25450;DHT22;13371;52.080;5.624;2023-06-10T00:15:03;23.50;68.70
25450;DHT22;13371;52.080;5.624;2023-06-10T00:17:29;23.60;69.10
25450;DHT22;13371;52.080;5.624;2023-06-10T00:19:55;23.60;67.80
25450;DHT22;13371;52.080;5.624;2023-06-10T00:22:20;23.60;67.40
25450;DHT22;13371;52.080;5.624;2023-06-10T00:24:47;23.60;68.10
25450;DHT22;13371;52.080;5.624;2023-06-10T00:27:13;23.50;68.00
25450;DHT22;13371;52.080;5.624;2023-06-10T00:29:39;23.50;67.80
25450;DHT22;13371;52.080;5.624;2023-06-10T00:32:05;23.30;68.30
25450;DHT22;13371;52.080;5.624;2023-06-10T00:34:31;23.30;67.70
25450;DHT22;13371;52.080;5.624;2023-06-10T00:36:57;23.40;67.10
25450;DHT22;13371;52.080;5.624;2023-06-10T00:39:23;23.30;67.80
25450;DHT22;13371;52.080;5.624;2023-06-10T00:41:48;23.40;66.70
25450;DHT22;13371;52.080;5.624;2023-06-10T00:44:15;23.40;67.00
25450;DHT22;13371;52.080;5.624;2023-06-10T00:46:41;23.20;66.30
25450;DHT22;13371;52.080;5.624;2023-06-10T00:49:07;23.20;66.50
25450;DHT22;13371;52.080;5.624;2023-06-10T00:51:33;23.30;67.10
25450;DHT22;13371;52.080;5.624;2023-06-10T00:53:59;23.10;66.40
25450;DHT22;13371;52.080;5.624;2023-06-10T00:56:25;22.90;67.40
25450;DHT22;13371;52.080;5.624;2023-06-10T00:58:51;22.80;67.10
25450;DHT22;13371;52.080;5.624;2023-06-10T01:01:16;22.90;66.90
25450;DHT22;13371;52.080;5.624;2023-06-10T01:03:43;23.00;66.80
25450;DHT22;13371;52.080;5.624;2023-06-10T01:06:24;23.00;66.50
25450;DHT22;13371;52.080;5.624;2023-06-10T01:09:00;22.90;66.60
25450;DHT22;13371;52.080;5.624;2023-06-10T01:11:41;22.80;66.90
25450;DHT22;13371;52.080;5.624;2023-06-10T01:14:09;22.50;67.40
25450;DHT22;13371;52.080;5.624;2023-06-10T01:16:35;22.50;67.30
25450;DHT22;13371;52.080;5.624;2023-06-10T01:19:02;22.60;67.00
25450;DHT22;13371;52.080;5.624;2023-06-10T01:21:28;22.50;67.40
25450;DHT22;13371;52.080;5.624;2023-06-10T01:23:55;22.50;67.10
25450;DHT22;13371;52.080;5.624;2023-06-10T01:26:26;22.30;67.00
25450;DHT22;13371;52.080;5.624;2023-06-10T01:29:28;22.50;67.70
25450;DHT22;13371;52.080;5.624;2023-06-10T01:34:25;22.40;67.70
25450;DHT22;13371;52.080;5.624;2023-06-10T01:36:52;22.40;67.50
25450;DHT22;13371;52.080;5.624;2023-06-10T01:39:23;22.20;67.90
25450;DHT22;13371;52.080;5.624;2023-06-10T01:41:49;22.40;68.00
25450;DHT22;13371;52.080;5.624;2023-06-10T01:44:18;22.40;67.60
25450;DHT22;13371;52.080;5.624;2023-06-10T01:46:45;22.50;68.10
25450;DHT22;13371;52.080;5.624;2023-06-10T01:49:10;22.40;68.10
25450;DHT22;13371;52.080;5.624;2023-06-10T01:51:36;22.30;68.20
25450;DHT22;13371;52.080;5.624;2023-06-10T01:54:01;22.10;68.30
25450;DHT22;13371;52.080;5.624;2023-06-10T01:56:27;22.10;68.50
25450;DHT22;13371;52.080;5.624;2023-06-10T01:58:52;22.20;69.00
25450;DHT22;13371;52.080;5.624;2023-06-10T02:01:21;22.00;69.10
25450;DHT22;13371;52.080;5.624;2023-06-10T02:03:46;22.10;69.00
25450;DHT22;13371;52.080;5.624;2023-06-10T02:06:12;22.20;68.80
25450;DHT22;13371;52.080;5.624;2023-06-10T02:08:37;22.00;69.70
25450;DHT22;13371;52.080;5.624;2023-06-10T02:11:03;22.20;69.50
25450;DHT22;13371;52.080;5.624;2023-06-10T02:13:29;22.10;69.60
25450;DHT22;13371;52.080;5.624;2023-06-10T02:15:54;22.10;69.70
25450;DHT22;13371;52.080;5.624;2023-06-10T02:18:20;22.00;69.70
25450;DHT22;13371;52.080;5.624;2023-06-10T02:20:46;21.80;70.70
25450;DHT22;13371;52.080;5.624;2023-06-10T02:23:12;21.70;71.00
25450;DHT22;13371;52.080;5.624;2023-06-10T02:25:37;21.70;71.10
25450;DHT22;13371;52.080;5.624;2023-06-10T02:28:03;21.90;70.90
25450;DHT22;13371;52.080;5.624;2023-06-10T02:30:28;21.90;71.00
25450;DHT22;13371;52.080;5.624;2023-06-10T02:32:54;21.90;71.30
25450;DHT22;13371;52.080;5.624;2023-06-10T02:35:21;22.00;71.10
25450;DHT22;13371;52.080;5.624;2023-06-10T02:37:49;21.90;71.20
25450;DHT22;13371;52.080;5.624;2023-06-10T02:40:15;21.60;72.10
25450;DHT22;13371;52.080;5.624;2023-06-10T02:42:41;21.60;72.10
25450;DHT22;13371;52.080;5.624;2023-06-10T02:45:07;21.60;72.80
25450;DHT22;13371;52.080;5.624;2023-06-10T02:47:33;21.70;71.80
25450;DHT22;13371;52.080;5.624;2023-06-10T02:49:58;21.50;72.60
25450;DHT22;13371;52.080;5.624;2023-06-10T02:52:24;21.50;72.60
25450;DHT22;13371;52.080;5.624;2023-06-10T02:54:50;21.60;72.90
25450;DHT22;13371;52.080;5.624;2023-06-10T02:57:16;21.70;72.40
25450;DHT22;13371;52.080;5.624;2023-06-10T02:59:41;21.80;72.40
25450;DHT22;13371;52.080;5.624;2023-06-10T03:02:07;21.60;72.40
25450;DHT22;13371;52.080;5.624;2023-06-10T03:04:33;21.60;73.50
25450;DHT22;13371;52.080;5.624;2023-06-10T03:06:58;21.70;72.90
25450;DHT22;13371;52.080;5.624;2023-06-10T03:09:25;21.60;73.10
25450;DHT22;13371;52.080;5.624;2023-06-10T03:11:51;21.60;73.70
25450;DHT22;13371;52.080;5.624;2023-06-10T03:14:17;21.50;73.60
25450;DHT22;13371;52.080;5.624;2023-06-10T03:16:42;21.20;74.50
25450;DHT22;13371;52.080;5.624;2023-06-10T03:19:08;21.20;74.40
25450;DHT22;13371;52.080;5.624;2023-06-10T03:21:34;21.10;75.20
25450;DHT22;13371;52.080;5.624;2023-06-10T03:24:00;21.10;75.00
25450;DHT22;13371;52.080;5.624;2023-06-10T03:26:27;20.90;75.80
25450;DHT22;13371;52.080;5.624;2023-06-10T03:28:53;21.00;76.00
25450;DHT22;13371;52.080;5.624;2023-06-10T03:31:18;21.00;76.30
25450;DHT22;13371;52.080;5.624;2023-06-10T03:33:44;20.90;76.50
25450;DHT22;13371;52.080;5.624;2023-06-10T03:36:10;20.90;76.00
25450;DHT22;13371;52.080;5.624;2023-06-10T03:38:35;20.90;76.70
25450;DHT22;13371;52.080;5.624;2023-06-10T03:41:02;20.90;77.00
25450;DHT22;13371;52.080;5.624;2023-06-10T03:43:27;21.00;77.10
25450;DHT22;13371;52.080;5.624;2023-06-10T03:45:53;21.00;76.80
25450;DHT22;13371;52.080;5.624;2023-06-10T03:48:18;20.70;77.30
25450;DHT22;13371;52.080;5.624;2023-06-10T03:50:44;20.80;77.70
25450;DHT22;13371;52.080;5.624;2023-06-10T03:53:10;20.80;77.60
25450;DHT22;13371;52.080;5.624;2023-06-10T03:55:35;20.80;78.30
25450;DHT22;13371;52.080;5.624;2023-06-10T03:58:01;20.80;77.80
25450;DHT22;13371;52.080;5.624;2023-06-10T04:00:27;21.00;77.40
25450;DHT22;13371;52.080;5.624;2023-06-10T04:02:54;21.10;77.10
25450;DHT22;13371;52.080;5.624;2023-06-10T04:05:23;21.00;77.80
25450;DHT22;13371;52.080;5.624;2023-06-10T04:07:49;20.90;78.20
25450;DHT22;13371;52.080;5.624;2023-06-10T04:10:15;20.70;78.70
25450;DHT22;13371;52.080;5.624;2023-06-10T04:12:41;20.80;78.90
25450;DHT22;13371;52.080;5.624;2023-06-10T04:15:07;20.90;79.10
25450;DHT22;13371;52.080;5.624;2023-06-10T04:17:33;20.90;79.10
25450;DHT22;13371;52.080;5.624;2023-06-10T04:19:59;21.00;79.20
25450;DHT22;13371;52.080;5.624;2023-06-10T04:22:26;20.80;79.60
25450;DHT22;13371;52.080;5.624;2023-06-10T04:24:52;21.00;79.90
25450;DHT22;13371;52.080;5.624;2023-06-10T04:27:18;20.80;79.90
25450;DHT22;13371;52.080;5.624;2023-06-10T04:29:43;20.80;80.10
25450;DHT22;13371;52.080;5.624;2023-06-10T04:32:09;20.90;80.20
25450;DHT22;13371;52.080;5.624;2023-06-10T04:34:35;21.00;80.30
25450;DHT22;13371;52.080;5.624;2023-06-10T04:37:00;20.90;80.30
25450;DHT22;13371;52.080;5.624;2023-06-10T04:39:26;20.80;80.20
25450;DHT22;13371;52.080;5.624;2023-06-10T04:41:52;20.80;80.20
25450;DHT22;13371;52.080;5.624;2023-06-10T04:44:18;20.90;80.00
25450;DHT22;13371;52.080;5.624;2023-06-10T04:46:44;20.70;80.60
25450;DHT22;13371;52.080;5.624;2023-06-10T04:49:10;20.80;80.20
25450;DHT22;13371;52.080;5.624;2023-06-10T04:51:36;21.00;81.00
25450;DHT22;13371;52.080;5.624;2023-06-10T04:54:03;21.10;80.50
25450;DHT22;13371;52.080;5.624;2023-06-10T04:56:29;21.20;81.30
25450;DHT22;13371;52.080;5.624;2023-06-10T04:58:56;21.30;80.40
25450;DHT22;13371;52.080;5.624;2023-06-10T05:01:21;21.30;80.20
25450;DHT22;13371;52.080;5.624;2023-06-10T05:03:47;21.40;80.50
25450;DHT22;13371;52.080;5.624;2023-06-10T05:06:12;21.30;80.40
25450;DHT22;13371;52.080;5.624;2023-06-10T05:08:38;21.00;81.00
25450;DHT22;13371;52.080;5.624;2023-06-10T05:11:04;21.00;81.80
25450;DHT22;13371;52.080;5.624;2023-06-10T05:13:29;21.10;81.10
25450;DHT22;13371;52.080;5.624;2023-06-10T05:15:55;21.20;81.70
25450;DHT22;13371;52.080;5.624;2023-06-10T05:18:20;21.20;81.50
25450;DHT22;13371;52.080;5.624;2023-06-10T05:20:46;21.30;80.90
25450;DHT22;13371;52.080;5.624;2023-06-10T05:23:12;21.40;80.10
25450;DHT22;13371;52.080;5.624;2023-06-10T05:25:37;21.50;80.80
25450;DHT22;13371;52.080;5.624;2023-06-10T05:28:03;21.40;81.00
25450;DHT22;13371;52.080;5.624;2023-06-10T05:30:29;21.40;81.20
25450;DHT22;13371;52.080;5.624;2023-06-10T05:32:54;21.30;82.20
25450;DHT22;13371;52.080;5.624;2023-06-10T05:35:21;21.40;82.30
25450;DHT22;13371;52.080;5.624;2023-06-10T05:37:48;21.40;81.40
25450;DHT22;13371;52.080;5.624;2023-06-10T05:40:14;21.40;80.50
25450;DHT22;13371;52.080;5.624;2023-06-10T05:42:39;21.60;80.60
25450;DHT22;13371;52.080;5.624;2023-06-10T05:45:06;22.00;79.20
25450;DHT22;13371;52.080;5.624;2023-06-10T05:47:32;22.00;80.20
25450;DHT22;13371;52.080;5.624;2023-06-10T05:49:57;21.60;79.40
25450;DHT22;13371;52.080;5.624;2023-06-10T05:52:23;21.60;80.40
25450;DHT22;13371;52.080;5.624;2023-06-10T05:54:50;22.00;79.20
25450;DHT22;13371;52.080;5.624;2023-06-10T05:57:15;22.00;80.60
25450;DHT22;13371;52.080;5.624;2023-06-10T05:59:41;22.00;80.40
25450;DHT22;13371;52.080;5.624;2023-06-10T06:02:06;21.90;80.00
25450;DHT22;13371;52.080;5.624;2023-06-10T06:04:32;21.70;79.30
25450;DHT22;13371;52.080;5.624;2023-06-10T06:06:58;21.80;79.70
25450;DHT22;13371;52.080;5.624;2023-06-10T06:09:23;21.80;79.30
25450;DHT22;13371;52.080;5.624;2023-06-10T06:11:49;22.20;80.30
25450;DHT22;13371;52.080;5.624;2023-06-10T06:14:14;22.60;78.50
25450;DHT22;13371;52.080;5.624;2023-06-10T06:16:40;22.70;77.10
25450;DHT22;13371;52.080;5.624;2023-06-10T06:22:13;23.10;77.20
25450;DHT22;13371;52.080;5.624;2023-06-10T06:24:38;22.80;78.00
25450;DHT22;13371;52.080;5.624;2023-06-10T06:27:04;22.80;77.40
25450;DHT22;13371;52.080;5.624;2023-06-10T06:29:30;22.50;77.30
25450;DHT22;13371;52.080;5.624;2023-06-10T06:32:01;22.60;76.40
25450;DHT22;13371;52.080;5.624;2023-06-10T06:34:27;22.60;76.50
25450;DHT22;13371;52.080;5.624;2023-06-10T06:36:52;22.80;76.80
25450;DHT22;13371;52.080;5.624;2023-06-10T06:39:18;22.90;76.80
25450;DHT22;13371;52.080;5.624;2023-06-10T06:41:43;23.40;75.90
25450;DHT22;13371;52.080;5.624;2023-06-10T06:44:09;23.60;76.90
25450;DHT22;13371;52.080;5.624;2023-06-10T06:46:35;23.70;73.80
25450;DHT22;13371;52.080;5.624;2023-06-10T06:49:00;23.70;73.30
25450;DHT22;13371;52.080;5.624;2023-06-10T06:51:26;23.30;76.90
25450;DHT22;13371;52.080;5.624;2023-06-10T06:53:57;23.60;76.20
25450;DHT22;13371;52.080;5.624;2023-06-10T06:56:24;23.70;75.50
25450;DHT22;13371;52.080;5.624;2023-06-10T06:58:51;23.80;73.00
25450;DHT22;13371;52.080;5.624;2023-06-10T07:01:17;24.00;73.30
25450;DHT22;13371;52.080;5.624;2023-06-10T07:03:42;24.20;72.50
25450;DHT22;13371;52.080;5.624;2023-06-10T07:06:08;24.20;74.40
25450;DHT22;13371;52.080;5.624;2023-06-10T07:08:34;24.10;74.20
25450;DHT22;13371;52.080;5.624;2023-06-10T07:10:59;23.80;72.50
25450;DHT22;13371;52.080;5.624;2023-06-10T07:13:25;24.20;74.40
25450;DHT22;13371;52.080;5.624;2023-06-10T07:15:53;24.40;71.40
25450;DHT22;13371;52.080;5.624;2023-06-10T07:18:19;24.20;71.30
25450;DHT22;13371;52.080;5.624;2023-06-10T07:20:44;24.50;76.00
25450;DHT22;13371;52.080;5.624;2023-06-10T07:23:13;24.10;71.20
25450;DHT22;13371;52.080;5.624;2023-06-10T07:25:41;23.80;71.80
25450;DHT22;13371;52.080;5.624;2023-06-10T07:28:07;24.30;75.10
25450;DHT22;13371;52.080;5.624;2023-06-10T07:30:32;24.50;73.80
25450;DHT22;13371;52.080;5.624;2023-06-10T07:33:04;24.80;71.60
25450;DHT22;13371;52.080;5.624;2023-06-10T07:35:40;24.80;69.60
25450;DHT22;13371;52.080;5.624;2023-06-10T07:38:08;24.90;70.20
25450;DHT22;13371;52.080;5.624;2023-06-10T07:40:39;25.60;70.60
25450;DHT22;13371;52.080;5.624;2023-06-10T07:43:10;26.20;70.70
25450;DHT22;13371;52.080;5.624;2023-06-10T07:46:02;26.20;71.10
25450;DHT22;13371;52.080;5.624;2023-06-10T07:48:27;26.00;68.60
25450;DHT22;13371;52.080;5.624;2023-06-10T07:50:56;25.70;69.10
25450;DHT22;13371;52.080;5.624;2023-06-10T07:53:24;25.80;69.20
25450;DHT22;13371;52.080;5.624;2023-06-10T07:55:53;26.00;64.20
25450;DHT22;13371;52.080;5.624;2023-06-10T07:58:26;26.10;65.30
25450;DHT22;13371;52.080;5.624;2023-06-10T08:00:52;26.00;67.20
25450;DHT22;13371;52.080;5.624;2023-06-10T08:03:27;26.30;64.70
25450;DHT22;13371;52.080;5.624;2023-06-10T08:06:01;26.30;71.20
25450;DHT22;13371;52.080;5.624;2023-06-10T08:08:31;26.90;66.20
25450;DHT22;13371;52.080;5.624;2023-06-10T08:10:59;27.20;65.70
25450;DHT22;13371;52.080;5.624;2023-06-10T08:13:30;27.30;64.20
25450;DHT22;13371;52.080;5.624;2023-06-10T08:16:03;27.70;66.00
25450;DHT22;13371;52.080;5.624;2023-06-10T08:18:31;27.90;64.30
25450;DHT22;13371;52.080;5.624;2023-06-10T08:21:01;27.70;59.70
25450;DHT22;13371;52.080;5.624;2023-06-10T08:23:29;27.40;64.20
25450;DHT22;13371;52.080;5.624;2023-06-10T08:26:01;27.80;64.10
25450;DHT22;13371;52.080;5.624;2023-06-10T08:28:29;27.80;63.50
25450;DHT22;13371;52.080;5.624;2023-06-10T08:30:55;28.20;63.20
25450;DHT22;13371;52.080;5.624;2023-06-10T08:33:26;27.90;61.10
25450;DHT22;13371;52.080;5.624;2023-06-10T08:35:58;28.10;61.80
25450;DHT22;13371;52.080;5.624;2023-06-10T08:38:26;28.30;60.30
25450;DHT22;13371;52.080;5.624;2023-06-10T08:40:56;28.10;63.00
25450;DHT22;13371;52.080;5.624;2023-06-10T08:43:34;28.00;59.80
25450;DHT22;13371;52.080;5.624;2023-06-10T08:46:04;28.10;61.20
25450;DHT22;13371;52.080;5.624;2023-06-10T08:48:42;27.90;62.60
25450;DHT22;13371;52.080;5.624;2023-06-10T08:51:11;28.50;61.20
25450;DHT22;13371;52.080;5.624;2023-06-10T08:53:48;28.30;59.00
25450;DHT22;13371;52.080;5.624;2023-06-10T08:56:16;28.50;59.60
25450;DHT22;13371;52.080;5.624;2023-06-10T08:58:43;28.50;59.10
25450;DHT22;13371;52.080;5.624;2023-06-10T09:01:13;28.50;63.70
25450;DHT22;13371;52.080;5.624;2023-06-10T09:03:42;28.70;61.80
25450;DHT22;13371;52.080;5.624;2023-06-10T09:06:11;29.00;61.10
25450;DHT22;13371;52.080;5.624;2023-06-10T09:08:45;29.10;58.90
25450;DHT22;13371;52.080;5.624;2023-06-10T09:11:14;29.30;58.80
25450;DHT22;13371;52.080;5.624;2023-06-10T09:13:42;29.70;61.70
25450;DHT22;13371;52.080;5.624;2023-06-10T09:16:16;29.90;61.00
25450;DHT22;13371;52.080;5.624;2023-06-10T09:18:42;30.00;58.00
25450;DHT22;13371;52.080;5.624;2023-06-10T09:21:14;30.60;59.30
25450;DHT22;13371;52.080;5.624;2023-06-10T09:23:39;30.80;60.30
25450;DHT22;13371;52.080;5.624;2023-06-10T09:26:08;30.70;55.30
25450;DHT22;13371;52.080;5.624;2023-06-10T09:28:39;30.10;56.30
25450;DHT22;13371;52.080;5.624;2023-06-10T09:31:11;30.40;55.90
25450;DHT22;13371;52.080;5.624;2023-06-10T09:33:44;30.60;59.80
25450;DHT22;13371;52.080;5.624;2023-06-10T09:36:22;30.50;54.60
25450;DHT22;13371;52.080;5.624;2023-06-10T09:38:50;30.20;61.40
25450;DHT22;13371;52.080;5.624;2023-06-10T09:41:19;30.20;54.60
25450;DHT22;13371;52.080;5.624;2023-06-10T09:43:49;30.40;58.80
25450;DHT22;13371;52.080;5.624;2023-06-10T09:46:21;30.70;55.00
25450;DHT22;13371;52.080;5.624;2023-06-10T09:48:57;30.20;54.30
25450;DHT22;13371;52.080;5.624;2023-06-10T09:51:25;30.60;55.00
25450;DHT22;13371;52.080;5.624;2023-06-10T09:53:57;30.60;54.90
25450;DHT22;13371;52.080;5.624;2023-06-10T09:56:37;30.70;55.80
25450;DHT22;13371;52.080;5.624;2023-06-10T09:59:08;30.70;55.20
25450;DHT22;13371;52.080;5.624;2023-06-10T10:01:39;30.80;53.10
25450;DHT22;13371;52.080;5.624;2023-06-10T10:04:40;30.70;59.20
25450;DHT22;13371;52.080;5.624;2023-06-10T10:07:09;31.20;53.90
25450;DHT22;13371;52.080;5.624;2023-06-10T10:09:55;31.30;52.80
25450;DHT22;13371;52.080;5.624;2023-06-10T10:15:39;31.70;51.80
25450;DHT22;13371;52.080;5.624;2023-06-10T10:18:11;31.50;55.00
25450;DHT22;13371;52.080;5.624;2023-06-10T10:21:12;31.20;51.20
25450;DHT22;13371;52.080;5.624;2023-06-10T10:24:01;31.50;54.30
25450;DHT22;13371;52.080;5.624;2023-06-10T10:29:37;31.40;51.40
25450;DHT22;13371;52.080;5.624;2023-06-10T10:32:12;31.20;52.40
25450;DHT22;13371;52.080;5.624;2023-06-10T10:35:28;31.70;53.90
25450;DHT22;13371;52.080;5.624;2023-06-10T10:38:22;31.50;47.10
25450;DHT22;13371;52.080;5.624;2023-06-10T10:41:06;30.50;48.50
25450;DHT22;13371;52.080;5.624;2023-06-10T10:43:42;30.60;52.50
25450;DHT22;13371;52.080;5.624;2023-06-10T10:49:15;31.70;51.00
25450;DHT22;13371;52.080;5.624;2023-06-10T10:52:11;31.70;47.80
25450;DHT22;13371;52.080;5.624;2023-06-10T10:54:49;32.00;49.00
25450;DHT22;13371;52.080;5.624;2023-06-10T10:57:24;31.20;47.50
25450;DHT22;13371;52.080;5.624;2023-06-10T10:59:58;30.60;51.10
25450;DHT22;13371;52.080;5.624;2023-06-10T11:02:35;31.20;51.40
25450;DHT22;13371;52.080;5.624;2023-06-10T11:05:15;31.90;51.10
25450;DHT22;13371;52.080;5.624;2023-06-10T11:07:55;32.00;48.60
25450;DHT22;13371;52.080;5.624;2023-06-10T11:10:31;31.60;47.70
25450;DHT22;13371;52.080;5.624;2023-06-10T11:12:57;31.90;52.00
25450;DHT22;13371;52.080;5.624;2023-06-10T11:15:28;32.10;47.90
25450;DHT22;13371;52.080;5.624;2023-06-10T11:31:19;31.80;49.60
25450;DHT22;13371;52.080;5.624;2023-06-10T11:33:47;31.80;47.90
25450;DHT22;13371;52.080;5.624;2023-06-10T11:36:22;32.40;48.60
25450;DHT22;13371;52.080;5.624;2023-06-10T11:38:50;32.30;47.00
25450;DHT22;13371;52.080;5.624;2023-06-10T11:41:17;32.80;49.00
25450;DHT22;13371;52.080;5.624;2023-06-10T11:43:44;33.00;48.60
25450;DHT22;13371;52.080;5.624;2023-06-10T11:46:14;33.00;46.70
25450;DHT22;13371;52.080;5.624;2023-06-10T11:48:54;33.00;47.80
25450;DHT22;13371;52.080;5.624;2023-06-10T11:51:20;33.20;47.30
25450;DHT22;13371;52.080;5.624;2023-06-10T11:53:50;32.90;46.80
25450;DHT22;13371;52.080;5.624;2023-06-10T11:56:22;32.70;46.50
25450;DHT22;13371;52.080;5.624;2023-06-10T11:58:55;33.10;47.40
25450;DHT22;13371;52.080;5.624;2023-06-10T12:01:23;33.30;45.60
25450;DHT22;13371;52.080;5.624;2023-06-10T12:04:04;32.70;46.10
25450;DHT22;13371;52.080;5.624;2023-06-10T12:06:51;32.70;46.60
25450;DHT22;13371;52.080;5.624;2023-06-10T12:09:25;32.60;46.90
25450;DHT22;13371;52.080;5.624;2023-06-10T12:12:02;32.60;46.00
25450;DHT22;13371;52.080;5.624;2023-06-10T12:14:51;32.00;46.50
25450;DHT22;13371;52.080;5.624;2023-06-10T12:17:20;32.90;47.80
25450;DHT22;13371;52.080;5.624;2023-06-10T12:19:47;32.50;47.50
25450;DHT22;13371;52.080;5.624;2023-06-10T12:22:13;32.60;47.40
25450;DHT22;13371;52.080;5.624;2023-06-10T12:24:57;32.40;49.40
25450;DHT22;13371;52.080;5.624;2023-06-10T12:27:25;32.50;46.90
25450;DHT22;13371;52.080;5.624;2023-06-10T12:29:58;32.70;48.90
25450;DHT22;13371;52.080;5.624;2023-06-10T12:35:05;32.50;46.60
25450;DHT22;13371;52.080;5.624;2023-06-10T12:37:39;32.70;50.30
25450;DHT22;13371;52.080;5.624;2023-06-10T12:40:08;32.70;49.10
25450;DHT22;13371;52.080;5.624;2023-06-10T12:42:38;32.80;47.70
25450;DHT22;13371;52.080;5.624;2023-06-10T12:45:06;32.80;49.20
25450;DHT22;13371;52.080;5.624;2023-06-10T12:47:37;33.20;47.90
25450;DHT22;13371;52.080;5.624;2023-06-10T12:50:16;33.60;46.70
25450;DHT22;13371;52.080;5.624;2023-06-10T12:52:44;32.50;46.10
25450;DHT22;13371;52.080;5.624;2023-06-10T12:55:14;32.20;46.60
25450;DHT22;13371;52.080;5.624;2023-06-10T12:57:55;33.00;48.80
25450;DHT22;13371;52.080;5.624;2023-06-10T13:00:25;32.30;45.20
25450;DHT22;13371;52.080;5.624;2023-06-10T13:02:53;32.40;45.70
25450;DHT22;13371;52.080;5.624;2023-06-10T13:05:23;33.10;45.40
25450;DHT22;13371;52.080;5.624;2023-06-10T13:07:51;32.80;45.80
25450;DHT22;13371;52.080;5.624;2023-06-10T13:10:17;33.10;47.80
25450;DHT22;13371;52.080;5.624;2023-06-10T13:12:46;32.90;47.40
25450;DHT22;13371;52.080;5.624;2023-06-10T13:15:15;32.60;47.50
25450;DHT22;13371;52.080;5.624;2023-06-10T13:17:52;32.60;46.10
25450;DHT22;13371;52.080;5.624;2023-06-10T13:20:32;32.90;48.50
25450;DHT22;13371;52.080;5.624;2023-06-10T13:26:28;32.90;46.20
25450;DHT22;13371;52.080;5.624;2023-06-10T13:28:57;33.20;46.90
25450;DHT22;13371;52.080;5.624;2023-06-10T13:31:31;33.50;48.20
25450;DHT22;13371;52.080;5.624;2023-06-10T13:33:57;33.20;44.70
25450;DHT22;13371;52.080;5.624;2023-06-10T13:36:37;33.40;45.80
25450;DHT22;13371;52.080;5.624;2023-06-10T13:39:21;33.30;45.70
25450;DHT22;13371;52.080;5.624;2023-06-10T13:42:10;33.20;46.90
25450;DHT22;13371;52.080;5.624;2023-06-10T13:44:54;33.70;47.30
25450;DHT22;13371;52.080;5.624;2023-06-10T13:47:19;33.70;45.80
25450;DHT22;13371;52.080;5.624;2023-06-10T13:49:48;33.10;44.70
25450;DHT22;13371;52.080;5.624;2023-06-10T13:52:25;32.50;46.00
25450;DHT22;13371;52.080;5.624;2023-06-10T13:54:50;32.70;47.60
25450;DHT22;13371;52.080;5.624;2023-06-10T13:57:16;32.90;46.00
25450;DHT22;13371;52.080;5.624;2023-06-10T13:59:41;33.00;46.20
25450;DHT22;13371;52.080;5.624;2023-06-10T14:02:07;33.10;45.80
25450;DHT22;13371;52.080;5.624;2023-06-10T14:04:32;33.20;46.80
25450;DHT22;13371;52.080;5.624;2023-06-10T14:06:58;33.30;44.70
25450;DHT22;13371;52.080;5.624;2023-06-10T14:09:24;32.90;47.70
25450;DHT22;13371;52.080;5.624;2023-06-10T14:11:52;32.80;45.70
25450;DHT22;13371;52.080;5.624;2023-06-10T14:14:19;32.60;45.80
25450;DHT22;13371;52.080;5.624;2023-06-10T14:16:45;32.40;45.60
25450;DHT22;13371;52.080;5.624;2023-06-10T14:19:14;32.70;48.60
25450;DHT22;13371;52.080;5.624;2023-06-10T14:21:39;32.80;46.30
25450;DHT22;13371;52.080;5.624;2023-06-10T14:24:19;32.60;44.90
25450;DHT22;13371;52.080;5.624;2023-06-10T14:26:48;32.90;44.00
25450;DHT22;13371;52.080;5.624;2023-06-10T14:29:13;32.40;44.60
25450;DHT22;13371;52.080;5.624;2023-06-10T14:32:03;32.90;45.30
25450;DHT22;13371;52.080;5.624;2023-06-10T14:34:28;33.30;50.00
25450;DHT22;13371;52.080;5.624;2023-06-10T14:37:01;33.40;44.80
25450;DHT22;13371;52.080;5.624;2023-06-10T14:39:56;33.00;43.60
25450;DHT22;13371;52.080;5.624;2023-06-10T14:42:22;33.20;45.40
25450;DHT22;13371;52.080;5.624;2023-06-10T14:44:50;33.20;44.30
25450;DHT22;13371;52.080;5.624;2023-06-10T14:47:19;33.00;46.90
25450;DHT22;13371;52.080;5.624;2023-06-10T14:50:16;33.20;44.20
25450;DHT22;13371;52.080;5.624;2023-06-10T14:53:02;33.00;45.00
25450;DHT22;13371;52.080;5.624;2023-06-10T14:55:37;32.90;46.80
25450;DHT22;13371;52.080;5.624;2023-06-10T14:58:36;33.00;45.80
25450;DHT22;13371;52.080;5.624;2023-06-10T15:07:05;33.00;44.80
25450;DHT22;13371;52.080;5.624;2023-06-10T15:09:31;33.30;44.00
25450;DHT22;13371;52.080;5.624;2023-06-10T15:11:59;33.50;46.30
25450;DHT22;13371;52.080;5.624;2023-06-10T15:14:25;33.40;43.90
25450;DHT22;13371;52.080;5.624;2023-06-10T15:17:16;33.20;44.30
25450;DHT22;13371;52.080;5.624;2023-06-10T15:19:56;33.10;44.60
25450;DHT22;13371;52.080;5.624;2023-06-10T15:22:24;33.00;44.60
25450;DHT22;13371;52.080;5.624;2023-06-10T15:25:02;32.30;45.10
25450;DHT22;13371;52.080;5.624;2023-06-10T15:27:27;32.80;44.80
25450;DHT22;13371;52.080;5.624;2023-06-10T15:29:53;32.80;44.70
25450;DHT22;13371;52.080;5.624;2023-06-10T15:32:18;32.80;45.90
25450;DHT22;13371;52.080;5.624;2023-06-10T15:34:44;33.20;44.40
25450;DHT22;13371;52.080;5.624;2023-06-10T15:37:13;33.30;43.60
25450;DHT22;13371;52.080;5.624;2023-06-10T15:39:39;33.10;44.20
25450;DHT22;13371;52.080;5.624;2023-06-10T15:42:04;33.10;43.00
25450;DHT22;13371;52.080;5.624;2023-06-10T15:44:30;33.50;45.40
25450;DHT22;13371;52.080;5.624;2023-06-10T15:47:02;33.20;42.50
25450;DHT22;13371;52.080;5.624;2023-06-10T15:49:30;32.90;45.30
25450;DHT22;13371;52.080;5.624;2023-06-10T15:51:58;33.10;43.90
25450;DHT22;13371;52.080;5.624;2023-06-10T15:54:24;33.50;44.60
25450;DHT22;13371;52.080;5.624;2023-06-10T15:56:49;32.90;41.90
25450;DHT22;13371;52.080;5.624;2023-06-10T15:59:15;32.80;43.50
25450;DHT22;13371;52.080;5.624;2023-06-10T16:01:41;33.40;44.20
25450;DHT22;13371;52.080;5.624;2023-06-10T16:04:06;33.50;44.30
25450;DHT22;13371;52.080;5.624;2023-06-10T16:06:32;32.80;42.10
25450;DHT22;13371;52.080;5.624;2023-06-10T16:08:59;32.90;45.00
25450;DHT22;13371;52.080;5.624;2023-06-10T16:11:25;33.30;44.60
25450;DHT22;13371;52.080;5.624;2023-06-10T16:13:54;33.20;44.40
25450;DHT22;13371;52.080;5.624;2023-06-10T16:16:20;33.10;43.00
25450;DHT22;13371;52.080;5.624;2023-06-10T16:18:45;33.20;44.50
25450;DHT22;13371;52.080;5.624;2023-06-10T16:21:11;32.90;43.00
25450;DHT22;13371;52.080;5.624;2023-06-10T16:23:37;33.20;45.00